Time;durP1;ratioP1;P1;durP2;ratioP2;P2;SDS_P1;SDS_P2;PMS_P1;PMS_P2;Temp;Humidity;BMP_temperature;BMP_pressure;BME280_temperature;BME280_humidity;BME280_pressure;Samples;Min_cycle;Max_cycle;Signal;HPM_P1;HPM_P2
2023/02/04 00:02:37;;;;;;;1.43;0.77;;;;;;;5.02;69.38;97718.44;7508477;23;20592;-57
2023/02/04 00:05:39;;;;;;;2.33;1.17;;;;;;;4.94;69.48;97745.91;7506862;23;20224;-59
2023/02/04 00:08:41;;;;;;;2.07;0.87;;;;;;;5.01;69.63;97727.41;7507479;23;20233;-58
2023/02/04 00:11:44;;;;;;;2.30;0.80;;;;;;;5.06;69.04;97733.69;7506984;23;20294;-56
2023/02/04 00:14:46;;;;;;;2.10;1.10;;;;;;;5.06;69.32;97727.59;7507417;23;20217;-57
2023/02/04 00:17:48;;;;;;;1.53;0.83;;;;;;;4.98;70.25;97727.81;7507613;23;20241;-55
2023/02/04 00:20:50;;;;;;;3.47;0.97;;;;;;;4.94;69.28;97729.25;7509635;23;20217;-58
2023/02/04 00:23:54;;;;;;;4.50;1.00;;;;;;;4.98;68.40;97738.38;7507652;23;20732;-56
2023/02/04 00:26:57;;;;;;;2.93;0.97;;;;;;;4.67;69.00;97697.56;7507342;23;20216;-57
2023/02/04 00:29:59;;;;;;;3.33;1.43;;;;;;;4.86;69.44;97746.91;7508113;23;20272;-56
2023/02/04 00:33:01;;;;;;;4.90;0.97;;;;;;;4.84;69.18;97732.28;7510435;23;20583;-56
2023/02/04 00:36:03;;;;;;;1.40;0.80;;;;;;;4.94;69.14;97747.72;7508184;23;20230;-55
2023/02/04 00:39:05;;;;;;;3.53;1.20;;;;;;;4.94;68.93;97737.97;7507449;23;20184;-56
2023/02/04 00:42:07;;;;;;;5.03;0.90;;;;;;;4.88;69.06;97744.88;7508020;23;20182;-58
2023/02/04 00:45:11;;;;;;;2.70;0.93;;;;;;;4.61;67.84;97691.28;7504593;23;20195;-58
2023/02/04 00:48:13;;;;;;;2.33;0.80;;;;;;;4.90;67.68;97731.47;7507675;23;20217;-58
2023/02/04 00:51:15;;;;;;;2.90;0.97;;;;;;;4.85;66.63;97726.81;7505162;23;20204;-59
2023/02/04 00:54:17;;;;;;;2.53;0.90;;;;;;;4.79;66.62;97695.97;7506109;23;20205;-58
2023/02/04 00:57:20;;;;;;;1.70;1.00;;;;;;;4.85;66.94;97705.69;7507248;23;20212;-57
2023/02/04 01:00:22;;;;;;;3.17;0.80;;;;;;;4.94;65.27;97700.22;7505560;23;20287;-57
2023/02/04 01:03:24;;;;;;;3.27;1.33;;;;;;;4.92;66.21;97706.47;7506666;23;20625;-57
2023/02/04 01:06:26;;;;;;;3.90;1.17;;;;;;;4.92;66.00;97695.91;7505420;23;20291;-57
2023/02/04 01:09:30;;;;;;;4.00;1.13;;;;;;;4.91;64.83;97675.03;7505911;23;20663;-56
2023/02/04 01:12:32;;;;;;;4.17;1.10;;;;;;;4.94;64.27;97700.22;7508477;23;20218;-56
2023/02/04 01:15:34;;;;;;;6.10;1.17;;;;;;;4.95;63.63;97694.72;7504672;23;20673;-58
2023/02/04 01:18:36;;;;;;;4.70;1.10;;;;;;;4.95;63.97;97692.06;7507274;23;20286;-57
2023/02/04 01:21:38;;;;;;;3.13;0.90;;;;;;;4.99;64.30;97690.66;7506330;23;20262;-58
2023/02/04 01:24:42;;;;;;;2.20;0.80;;;;;;;4.87;64.49;97661.41;7505254;23;20282;-56
2023/02/04 01:28:02;;;;;;;6.27;2.17;;;;;;;4.95;64.79;97686.78;7507259;23;20263;-58
2023/02/04 01:31:04;;;;;;;3.70;1.40;;;;;;;4.91;65.12;97681.09;7481102;23;20216;-55
2023/02/04 01:34:07;;;;;;;5.23;1.30;;;;;;;4.96;64.20;97664.66;7505362;23;20219;-58
2023/02/04 01:37:09;;;;;;;2.87;1.00;;;;;;;4.96;64.61;97682.31;7504287;23;20216;-57
2023/02/04 01:40:11;;;;;;;3.83;1.27;;;;;;;5.00;64.53;97688.81;7507151;23;20655;-55
2023/02/04 01:43:13;;;;;;;4.53;1.20;;;;;;;5.05;65.39;97667.91;7505467;23;20217;-57
2023/02/04 01:46:16;;;;;;;4.57;1.00;;;;;;;4.87;65.44;97669.34;7504584;23;20267;-57
2023/02/04 01:49:18;;;;;;;4.03;1.33;;;;;;;4.63;65.58;97636.50;7506139;23;20219;-56
2023/02/04 01:52:21;;;;;;;8.53;1.43;;;;;;;4.84;65.84;97677.69;7503963;23;20621;-56
2023/02/04 01:55:27;;;;;;;3.03;1.30;;;;;;;4.82;64.76;97676.25;7505037;23;20219;-56
2023/02/04 01:58:32;;;;;;;4.10;1.70;;;;;;;4.88;65.12;97681.53;7503010;23;20550;-57
2023/02/04 02:01:40;;;;;;;5.07;1.47;;;;;;;4.81;66.09;97686.00;7503443;23;20222;-56
2023/02/04 02:04:42;;;;;;;3.10;1.23;;;;;;;4.86;64.26;97680.91;7505634;23;20218;-53
2023/02/04 02:07:44;;;;;;;5.73;1.03;;;;;;;4.92;65.19;97679.28;7507623;23;20274;-56
2023/02/04 02:10:48;;;;;;;7.60;2.17;;;;;;;4.86;65.83;97675.63;7503589;23;20292;-58
2023/02/04 02:13:50;;;;;;;7.63;2.07;;;;;;;4.91;65.22;97690.84;7506866;23;20653;-56
2023/02/04 02:16:52;;;;;;;3.10;1.23;;;;;;;4.87;66.52;97681.72;7506717;23;20305;-55
2023/02/04 02:19:54;;;;;;;4.47;1.60;;;;;;;4.90;64.80;97676.03;7503746;23;20218;-54
2023/02/04 02:23:13;;;;;;;7.50;1.50;;;;;;;4.88;64.42;97702.66;7504146;23;20266;-57
2023/02/04 02:26:18;;;;;;;4.47;1.30;;;;;;;4.94;64.01;97677.25;7505273;23;20223;-58
2023/02/04 02:29:22;;;;;;;4.40;1.30;;;;;;;4.96;64.57;97691.06;7507248;23;20242;-57
2023/02/04 02:32:24;;;;;;;6.50;1.20;;;;;;;5.01;64.05;97674.59;7505418;23;20365;-58
2023/02/04 02:35:27;;;;;;;7.87;1.07;;;;;;;5.06;63.36;97683.50;7505434;23;20299;-56
2023/02/04 02:38:30;;;;;;;5.43;1.30;;;;;;;5.00;64.53;97694.91;7506377;23;20314;-54
2023/02/04 02:41:35;;;;;;;4.03;1.30;;;;;;;5.06;63.96;97680.06;7512054;23;20343;-56
2023/02/04 02:44:37;;;;;;;7.93;1.90;;;;;;;5.00;64.71;97704.66;7508556;23;20687;-53
2023/02/04 02:47:39;;;;;;;3.73;1.27;;;;;;;4.89;64.59;97683.16;7504252;23;20331;-57
2023/02/04 02:50:42;;;;;;;4.00;1.27;;;;;;;4.86;64.37;97659.00;7506079;23;20715;-54
2023/02/04 02:53:47;;;;;;;5.70;1.73;;;;;;;4.72;65.25;97639.72;7506065;23;20249;-57
2023/02/04 02:56:50;;;;;;;4.63;1.13;;;;;;;4.89;65.86;97677.88;7504133;23;20319;-57
2023/02/04 02:59:52;;;;;;;2.57;1.10;;;;;;;4.68;65.33;97651.72;7505039;23;20215;-57
2023/02/04 03:03:07;;;;;;;3.47;1.33;;;;;;;4.86;65.69;97682.75;7508835;23;20212;-58
2023/02/04 03:06:19;;;;;;;4.83;1.30;;;;;;;4.79;66.17;97687.22;7509762;23;20273;-56
2023/02/04 03:09:26;;;;;;;4.30;1.40;;;;;;;4.81;66.27;97701.03;7510744;23;20212;-57
2023/02/04 03:12:28;;;;;;;2.23;1.27;;;;;;;4.73;66.00;97665.13;7506730;23;20739;-53
2023/02/04 03:15:30;;;;;;;3.53;1.47;;;;;;;4.81;67.16;97678.06;7508600;23;20588;-57
2023/02/04 03:18:34;;;;;;;4.23;1.73;;;;;;;4.74;65.97;97664.09;7506052;23;20210;-56
2023/02/04 03:21:36;;;;;;;7.63;1.30;;;;;;;4.61;67.49;97651.72;7507265;23;20599;-57
2023/02/04 03:24:38;;;;;;;5.13;1.20;;;;;;;4.65;68.24;97676.69;7509359;23;20216;-56
2023/02/04 03:27:41;;;;;;;2.70;1.50;;;;;;;4.61;69.04;97667.53;7507831;23;20543;-57
2023/02/04 03:30:43;;;;;;;3.53;1.17;;;;;;;4.40;68.02;97655.38;7508170;23;20598;-54
2023/02/04 03:33:45;;;;;;;5.80;0.80;;;;;;;4.36;66.02;97633.06;7507776;23;20262;-55
2023/02/04 03:36:48;;;;;;;4.23;1.27;;;;;;;4.62;67.13;97684.19;7508849;23;20222;-52
2023/02/04 03:39:50;;;;;;;6.07;1.10;;;;;;;4.74;64.89;97668.56;7509552;23;20298;-55
2023/02/04 03:42:52;;;;;;;6.03;1.37;;;;;;;4.59;67.26;97648.47;7508820;23;20767;-53
2023/02/04 03:45:54;;;;;;;3.83;0.97;;;;;;;4.71;66.35;97656.56;7508206;23;20541;-56
2023/02/04 03:48:56;;;;;;;5.70;1.20;;;;;;;4.74;66.37;97647.44;7507021;23;20243;-56
2023/02/04 03:51:58;;;;;;;3.07;0.90;;;;;;;4.42;68.38;97604.25;7508734;23;20216;-57
2023/02/04 03:55:00;;;;;;;4.53;1.10;;;;;;;4.59;66.37;97650.31;7508407;23;20289;-57
2023/02/04 03:58:03;;;;;;;5.60;1.00;;;;;;;4.57;64.30;97642.56;7507721;23;20742;-56
2023/02/04 04:01:06;;;;;;;1.77;0.70;;;;;;;4.84;63.88;97671.59;7507211;23;20482;-56
2023/02/04 04:04:08;;;;;;;5.40;1.10;;;;;;;4.88;64.31;97693.94;7509414;23;20216;-56
2023/02/04 04:07:10;;;;;;;3.97;0.90;;;;;;;4.84;64.57;97671.59;7506363;23;20221;-56
2023/02/04 04:10:12;;;;;;;3.20;0.90;;;;;;;4.89;64.54;97699.00;7508217;23;20219;-57
2023/02/04 04:13:14;;;;;;;1.83;0.83;;;;;;;4.83;65.52;97709.56;7507460;23;20215;-54
2023/02/04 04:16:16;;;;;;;3.83;1.20;;;;;;;4.76;65.90;97690.25;7507346;23;20301;-57
2023/02/04 04:19:18;;;;;;;4.73;1.10;;;;;;;4.55;66.42;97693.94;7507967;23;20222;-55
2023/02/04 04:22:20;;;;;;;6.13;1.10;;;;;;;4.61;67.00;97714.22;7507749;23;20249;-58
2023/02/04 04:25:22;;;;;;;1.83;0.87;;;;;;;4.61;67.12;97695.75;7508586;23;20215;-56
2023/02/04 04:28:24;;;;;;;5.57;1.30;;;;;;;4.50;67.18;97728.84;7507089;23;20610;-56
2023/02/04 04:31:26;;;;;;;3.47;0.90;;;;;;;4.54;66.21;97708.94;7507987;23;20270;-54
2023/02/04 04:34:28;;;;;;;3.33;1.03;;;;;;;4.56;65.65;97721.94;7508443;23;20206;-53
2023/02/04 04:37:30;;;;;;;1.17;0.50;;;;;;;4.61;65.25;97738.78;7506350;23;20607;-50
2023/02/04 04:40:32;;;;;;;1.63;0.50;;;;;;;4.65;64.26;97740.00;7507984;23;20216;-55
2023/02/04 04:43:35;;;;;;;2.40;0.50;;;;;;;4.68;63.46;97761.72;7507809;23;20211;-58
2023/02/04 04:46:39;;;;;;;1.90;0.70;;;;;;;4.61;65.15;97810.00;7507629;23;20600;-55
2023/02/04 04:49:41;;;;;;;0.90;0.40;;;;;;;4.58;62.64;97833.34;7507879;23;20241;-56
2023/02/04 04:52:43;;;;;;;1.03;0.37;;;;;;;4.23;63.03;97788.59;7507581;23;20223;-57
2023/02/04 04:55:45;;;;;;;1.03;0.27;;;;;;;4.37;63.13;97850.94;7506942;23;20259;-55
2023/02/04 04:58:47;;;;;;;0.37;0.37;;;;;;;4.05;63.53;97844.53;7507541;23;20307;-53
2023/02/04 05:01:49;;;;;;;0.60;0.30;;;;;;;4.22;63.32;97894.28;7505365;23;20289;-49
2023/02/04 05:04:51;;;;;;;0.40;0.30;;;;;;;4.10;62.07;97942.31;7504245;23;20270;-55
2023/02/04 05:07:53;;;;;;;0.70;0.27;;;;;;;4.01;62.59;97942.66;7506848;23;20210;-54
2023/02/04 05:10:55;;;;;;;1.07;0.40;;;;;;;3.80;64.40;97957.50;7506631;23;20215;-57
2023/02/04 05:13:57;;;;;;;0.53;0.50;;;;;;;3.34;67.07;97992.16;7508265;23;20220;-57
2023/02/04 05:16:59;;;;;;;0.40;0.40;;;;;;;3.09;69.77;97996.16;7507347;23;20225;-54
2023/02/04 05:20:02;;;;;;;0.30;0.30;;;;;;;2.92;68.48;98018.44;7506773;23;20214;-56
2023/02/04 05:23:04;;;;;;;0.80;0.40;;;;;;;2.74;67.92;98034.59;7508379;23;20210;-54
2023/02/04 05:26:07;;;;;;;1.13;0.43;;;;;;;2.70;66.83;98055.19;7507914;23;20598;-51
2023/02/04 05:29:09;;;;;;;0.80;0.50;;;;;;;2.62;65.73;98067.66;7511082;23;20215;-52
2023/02/04 05:32:11;;;;;;;1.03;0.30;;;;;;;2.55;64.97;98051.75;7515928;23;20218;-57
2023/02/04 05:35:13;;;;;;;1.07;0.50;;;;;;;2.56;63.37;98050.75;7513203;23;20250;-55
2023/02/04 05:38:15;;;;;;;0.50;0.40;;;;;;;2.63;62.53;98045.59;7512864;23;20228;-55
2023/02/04 05:41:17;;;;;;;1.30;0.70;;;;;;;2.69;60.65;98081.69;7506694;23;20661;-55
2023/02/04 05:44:19;;;;;;;0.40;0.40;;;;;;;2.68;60.35;98073.00;7507600;23;20753;-56
2023/02/04 05:47:21;;;;;;;0.67;0.43;;;;;;;2.74;60.21;98113.53;7504644;23;20298;-53
2023/02/04 05:50:23;;;;;;;0.63;0.60;;;;;;;2.73;60.83;98104.00;7507694;23;20214;-56
2023/02/04 05:53:41;;;;;;;0.50;0.50;;;;;;;2.62;59.62;98109.72;7506248;23;20612;-58
2023/02/04 05:56:45;;;;;;;1.30;0.70;;;;;;;2.50;59.42;98093.56;7506769;23;20269;-57
2023/02/04 05:59:47;;;;;;;0.50;0.50;;;;;;;2.60;58.28;98102.00;7482142;23;20228;-56
2023/02/04 06:02:49;;;;;;;0.87;0.87;;;;;;;2.68;57.89;98137.94;7504439;23;20218;-54
2023/02/04 06:05:51;;;;;;;1.40;1.03;;;;;;;2.62;57.78;98172.84;7505757;23;20529;-52
2023/02/04 06:08:53;;;;;;;1.17;0.60;;;;;;;2.63;57.25;98129.75;7507306;23;20278;-58
2023/02/04 06:11:56;;;;;;;0.80;0.63;;;;;;;2.59;56.95;98148.53;7506924;23;20211;-58
2023/02/04 06:14:58;;;;;;;0.73;0.73;;;;;;;2.61;58.30;98171.19;7507822;23;20224;-56
2023/02/04 06:18:00;;;;;;;0.97;0.70;;;;;;;2.53;56.94;98158.94;7506086;23;20224;-57
2023/02/04 06:21:03;;;;;;;0.70;0.60;;;;;;;2.43;57.08;98158.38;7506222;23;20725;-57
2023/02/04 06:24:05;;;;;;;2.47;0.87;;;;;;;2.56;56.95;98155.94;7506365;23;20270;-55
2023/02/04 06:27:07;;;;;;;2.43;0.70;;;;;;;2.56;56.83;98192.75;7506516;23;20611;-57
2023/02/04 06:30:10;;;;;;;0.63;0.63;;;;;;;2.53;57.79;98206.28;7503408;23;20186;-54
2023/02/04 06:33:12;;;;;;;0.70;0.67;;;;;;;2.54;56.89;98205.28;7505977;23;20185;-58
2023/02/04 06:36:14;;;;;;;1.07;0.80;;;;;;;2.53;58.29;98235.22;7508121;23;20202;-50
2023/02/04 06:39:16;;;;;;;1.17;0.77;;;;;;;2.56;57.97;98235.69;7510053;23;20563;-56
2023/02/04 06:42:18;;;;;;;1.10;1.00;;;;;;;2.49;58.18;98268.13;7510487;23;20254;-51
2023/02/04 06:45:20;;;;;;;0.83;0.83;;;;;;;2.48;58.43;98255.97;7509861;23;20586;-57
2023/02/04 06:48:22;;;;;;;0.77;0.70;;;;;;;2.51;57.92;98281.88;7507360;23;20214;-59
2023/02/04 06:51:25;;;;;;;1.47;0.97;;;;;;;2.52;57.67;98284.38;7509196;23;20281;-54
2023/02/04 06:54:27;;;;;;;1.67;0.80;;;;;;;2.49;58.07;98303.13;7507229;23;20435;-57
2023/02/04 06:57:29;;;;;;;1.10;0.90;;;;;;;2.38;58.76;98323.75;7508775;23;20775;-58
2023/02/04 07:00:31;;;;;;;1.63;1.10;;;;;;;2.36;57.10;98336.22;7508295;23;20222;-54
2023/02/04 07:03:33;;;;;;;1.80;0.93;;;;;;;2.26;58.79;98333.81;7508004;23;20662;-54
2023/02/04 07:06:35;;;;;;;1.30;1.03;;;;;;;2.34;57.94;98344.28;7507155;23;20553;-51
2023/02/04 07:09:39;;;;;;;1.17;1.00;;;;;;;2.32;57.40;98378.66;7508421;23;20269;-54
2023/02/04 07:12:41;;;;;;;1.40;0.90;;;;;;;2.35;57.47;98366.16;7509089;23;20222;-58
2023/02/04 07:15:43;;;;;;;1.50;1.00;;;;;;;2.37;58.17;98391.28;7508735;23;20221;-50
2023/02/04 07:18:45;;;;;;;1.30;1.20;;;;;;;2.32;57.80;98391.78;7506487;23;20247;-58
2023/02/04 07:21:47;;;;;;;1.73;1.20;;;;;;;2.33;58.09;98417.09;7510224;23;20221;-56
2023/02/04 07:24:49;;;;;;;2.43;1.30;;;;;;;2.32;57.35;98430.41;7507899;23;20265;-57
2023/02/04 07:27:51;;;;;;;1.73;1.20;;;;;;;2.32;56.90;98433.06;7507364;23;20530;-55
2023/02/04 07:30:53;;;;;;;1.73;1.27;;;;;;;2.27;58.42;98451.97;7506542;23;20214;-51
2023/02/04 07:33:56;;;;;;;1.60;1.40;;;;;;;2.30;57.90;98475.25;7507949;23;20686;-54
2023/02/04 07:36:58;;;;;;;2.60;1.40;;;;;;;2.33;57.89;98479.38;7509163;23;20226;-58
2023/02/04 07:40:00;;;;;;;1.43;1.33;;;;;;;2.37;59.01;98487.75;7508673;23;20214;-57
2023/02/04 07:43:02;;;;;;;3.27;1.67;;;;;;;2.17;60.39;98531.97;7508287;23;20294;-55
2023/02/04 07:46:06;;;;;;;1.90;1.37;;;;;;;2.05;59.96;98521.00;7504729;23;20222;-57
2023/02/04 07:49:08;;;;;;;1.87;1.30;;;;;;;2.06;57.96;98546.28;7508090;23;20623;-55
2023/02/04 07:52:11;;;;;;;1.97;1.43;;;;;;;2.13;59.15;98542.03;7509121;23;20268;-56
2023/02/04 07:55:13;;;;;;;1.97;1.60;;;;;;;2.19;58.56;98551.03;7508771;23;20214;-58
2023/02/04 07:58:15;;;;;;;1.30;1.10;;;;;;;2.24;57.12;98564.50;7508207;23;20220;-54
2023/02/04 08:01:17;;;;;;;1.63;1.30;;;;;;;2.35;56.12;98577.28;7507557;23;20218;-55
2023/02/04 08:04:19;;;;;;;1.30;1.10;;;;;;;2.33;57.04;98571.41;7509507;23;20380;-53
2023/02/04 08:07:21;;;;;;;1.70;1.20;;;;;;;2.22;57.40;98588.34;7507111;23;20533;-58
2023/02/04 08:10:23;;;;;;;2.60;1.43;;;;;;;2.19;57.63;98591.28;7508001;23;20238;-56
2023/02/04 08:13:25;;;;;;;1.23;1.13;;;;;;;2.04;56.37;98590.31;7507177;23;20211;-52
2023/02/04 08:16:27;;;;;;;1.63;1.47;;;;;;;1.97;57.57;98608.56;7507322;23;20215;-57
2023/02/04 08:19:29;;;;;;;1.40;1.30;;;;;;;1.92;58.11;98633.66;7507053;23;20241;-55
2023/02/04 08:22:32;;;;;;;1.13;0.90;;;;;;;1.92;57.11;98662.56;7509554;23;20554;-55
2023/02/04 08:25:36;;;;;;;1.10;1.00;;;;;;;1.85;56.15;98674.72;7506160;23;20219;-51
2023/02/04 08:28:38;;;;;;;1.00;0.50;;;;;;;1.81;54.24;98697.84;7504047;23;20556;-57
2023/02/04 08:31:40;;;;;;;0.70;0.63;;;;;;;1.86;52.89;98690.31;7507542;23;20220;-52
2023/02/04 08:34:42;;;;;;;0.60;0.50;;;;;;;2.01;52.93;98695.75;7507915;23;20569;-56
2023/02/04 08:37:44;;;;;;;0.67;0.43;;;;;;;2.01;51.98;98691.31;7507804;23;20708;-57
2023/02/04 08:40:46;;;;;;;0.50;0.50;;;;;;;2.05;51.13;98697.06;7507135;23;20220;-57
2023/02/04 08:43:48;;;;;;;0.60;0.40;;;;;;;2.22;50.70;98687.41;7506620;23;20690;-54
2023/02/04 08:46:50;;;;;;;0.67;0.50;;;;;;;2.53;50.81;98698.91;7506205;23;20220;-53
2023/02/04 08:49:52;;;;;;;0.50;0.50;;;;;;;2.49;50.78;98723.88;7508748;23;20218;-51
2023/02/04 08:52:54;;;;;;;0.63;0.43;;;;;;;2.62;49.54;98712.88;7507104;23;20224;-52
2023/02/04 08:55:56;;;;;;;0.87;0.63;;;;;;;2.55;50.57;98740.81;7506108;23;20697;-53
2023/02/04 08:58:58;;;;;;;0.73;0.40;;;;;;;2.49;51.89;98728.31;7508365;23;20606;-55
2023/02/04 09:02:01;;;;;;;1.17;1.07;;;;;;;2.69;53.08;98734.06;7507325;23;20627;-52
2023/02/04 09:05:04;;;;;;;0.50;0.40;;;;;;;2.67;51.12;98738.69;7508475;23;20233;-56
2023/02/04 09:08:06;;;;;;;1.03;0.57;;;;;;;2.56;50.54;98763.50;7507986;23;20237;-51
2023/02/04 09:11:11;;;;;;;0.90;0.70;;;;;;;2.67;52.44;98759.75;7508234;23;20214;-55
2023/02/04 09:14:13;;;;;;;0.80;0.70;;;;;;;2.65;53.21;98774.84;7508284;23;20242;-54
2023/02/04 09:17:15;;;;;;;0.80;0.77;;;;;;;2.55;54.24;98761.84;7505326;23;20225;-53
2023/02/04 09:20:17;;;;;;;0.73;0.70;;;;;;;2.70;52.80;98770.72;7504512;23;20220;-57
2023/02/04 09:23:20;;;;;;;2.20;0.60;;;;;;;3.05;52.99;98785.38;7509847;23;20218;-57
2023/02/04 09:26:22;;;;;;;0.70;0.60;;;;;;;2.89;53.22;98789.81;7513864;23;20278;-58
2023/02/04 09:29:24;;;;;;;1.80;0.60;;;;;;;2.78;56.78;98807.56;7510329;23;20548;-54
2023/02/04 09:32:26;;;;;;;0.57;0.57;;;;;;;2.44;54.62;98768.25;7506453;23;20214;-57
2023/02/04 09:35:28;;;;;;;0.50;0.50;;;;;;;2.66;52.82;98829.09;7506881;23;20241;-58
2023/02/04 09:38:30;;;;;;;0.90;0.70;;;;;;;2.69;52.28;98844.56;7504624;23;20225;-57
2023/02/04 09:41:33;;;;;;;0.40;0.40;;;;;;;2.45;52.67;98842.72;7506824;23;20218;-55
2023/02/04 09:44:36;;;;;;;0.60;0.50;;;;;;;2.28;52.52;98850.56;7506790;23;20214;-53
2023/02/04 09:47:38;;;;;;;0.77;0.70;;;;;;;2.17;53.22;98856.13;7506909;23;20215;-56
2023/02/04 09:50:41;;;;;;;0.73;0.70;;;;;;;2.04;53.46;98866.25;7506732;23;20600;-57
2023/02/04 09:53:43;;;;;;;0.87;0.57;;;;;;;2.09;53.05;98878.94;7506381;23;20275;-56
2023/02/04 09:56:46;;;;;;;0.53;0.53;;;;;;;2.07;54.18;98889.59;7506170;23;20218;-54
2023/02/04 09:59:49;;;;;;;0.70;0.60;;;;;;;2.13;52.45;98881.09;7506854;23;20774;-56
2023/02/04 10:02:52;;;;;;;0.50;0.50;;;;;;;2.36;53.73;98885.75;7507555;23;20212;-56
2023/02/04 10:05:54;;;;;;;1.07;0.60;;;;;;;3.01;51.39;98891.97;7506230;23;20507;-57
2023/02/04 10:08:56;;;;;;;1.53;0.60;;;;;;;3.03;49.73;98894.44;7506869;23;20225;-56
2023/02/04 10:11:59;;;;;;;2.00;0.63;;;;;;;2.97;50.54;98905.63;7505944;23;20236;-57
2023/02/04 10:15:02;;;;;;;3.90;0.60;;;;;;;2.39;52.67;98928.34;7507439;23;20685;-57
2023/02/04 10:18:07;;;;;;;0.93;0.60;;;;;;;2.25;52.62;98939.44;7507578;23;20218;-56
2023/02/04 10:21:39;;;;;;;0.60;0.53;;;;;;;2.53;51.83;98954.03;7505276;23;20187;-58
2023/02/04 10:24:41;;;;;;;1.93;0.70;;;;;;;5.10;46.15;98952.31;7466731;23;20210;-56
2023/02/04 10:28:09;;;;;;;0.80;0.57;;;;;;;6.15;40.84;98955.06;7465980;23;20289;-57
2023/02/04 10:31:34;;;;;;;1.80;0.80;;;;;;;5.14;40.05;98919.28;7463142;23;20211;-54
2023/02/04 10:34:38;;;;;;;0.83;0.70;;;;;;;4.62;42.92;98943.69;7466618;23;20556;-56
2023/02/04 10:37:40;;;;;;;1.60;0.90;;;;;;;3.99;43.74;98943.75;7464376;23;20229;-55
2023/02/04 10:40:43;;;;;;;0.97;0.60;;;;;;;3.28;44.33;98932.13;7465738;23;20215;-53
2023/02/04 10:43:45;;;;;;;2.03;0.70;;;;;;;3.21;46.62;98947.78;7465656;23;20258;-54
2023/02/04 10:46:47;;;;;;;1.30;0.57;;;;;;;3.11;47.48;98973.44;7465812;23;20227;-58
2023/02/04 10:50:05;;;;;;;1.60;0.80;;;;;;;3.09;47.07;98970.13;7465437;23;20215;-54
2023/02/04 10:56:30;;;;;;;0.70;0.67;;;;;;;2.97;47.98;98956.47;7467742;23;20215;-58
2023/02/04 10:59:34;;;;;;;0.70;0.60;;;;;;;2.68;49.65;98950.78;7467983;23;20219;-57
2023/02/04 11:03:38;;;;;;;0.80;0.50;;;;;;;2.55;51.08;98956.50;7506688;23;20249;-57
2023/02/04 11:06:40;;;;;;;1.00;0.80;;;;;;;2.39;53.40;98988.81;7465761;23;20660;-56
2023/02/04 11:09:43;;;;;;;1.30;0.90;;;;;;;2.12;53.90;98976.69;7467653;23;20215;-54
2023/02/04 11:12:59;;;;;;;0.70;0.70;;;;;;;2.00;52.87;98959.53;7467810;23;20333;-56
2023/02/04 11:16:16;;;;;;;1.00;0.80;;;;;;;2.30;51.47;98992.38;7467251;23;20246;-56
2023/02/04 11:19:36;;;;;;;1.10;0.60;;;;;;;2.48;50.76;98985.25;7472474;23;20226;-54
2023/02/04 11:22:48;;;;;;;0.80;0.80;;;;;;;2.63;53.52;98942.56;7466276;23;20217;-58
2023/02/04 11:26:12;;;;;;;1.20;0.90;;;;;;;3.20;51.74;98983.00;7446111;23;20234;-56
2023/02/04 11:29:14;;;;;;;0.80;0.70;;;;;;;3.33;49.96;98995.66;7469413;23;20339;-58
2023/02/04 11:32:36;;;;;;;0.93;0.80;;;;;;;3.27;48.50;98973.44;7469666;23;20242;-56
2023/02/04 11:35:55;;;;;;;1.20;0.87;;;;;;;3.20;48.60;98987.41;7468134;23;20219;-57
2023/02/04 11:39:07;;;;;;;0.73;0.50;;;;;;;2.87;50.11;98955.78;7508859;23;20315;-54
2023/02/04 11:42:39;;;;;;;1.70;1.03;;;;;;;2.77;50.69;99008.53;7507523;23;20203;-54
2023/02/04 11:45:42;;;;;;;0.50;0.50;;;;;;;2.61;50.64;99007.66;7508290;23;20210;-57
2023/02/04 11:48:44;;;;;;;0.80;0.70;;;;;;;2.07;52.16;98971.09;7506675;23;20210;-53
2023/02/04 11:51:46;;;;;;;1.00;0.90;;;;;;;2.48;52.30;99014.19;7508936;23;20217;-56
2023/02/04 11:54:57;;;;;;;0.73;0.73;;;;;;;2.66;49.35;99022.00;7508163;23;20670;-57
2023/02/04 11:57:59;;;;;;;1.10;1.00;;;;;;;2.87;49.67;99032.09;7507530;23;20689;-58
2023/02/04 12:01:01;;;;;;;0.83;0.50;;;;;;;3.10;48.03;99024.41;7507800;23;20266;-55
2023/02/04 12:04:06;;;;;;;0.67;0.60;;;;;;;3.69;47.46;99019.88;7507890;23;20294;-59
2023/02/04 12:07:11;;;;;;;1.00;0.70;;;;;;;3.94;46.85;99036.53;7507411;23;20221;-54
2023/02/04 12:10:24;;;;;;;0.63;0.50;;;;;;;3.81;46.09;99034.41;7508330;23;20907;-55
2023/02/04 12:13:26;;;;;;;1.00;0.60;;;;;;;3.17;47.10;98993.84;7509713;23;20339;-56
2023/02/04 12:16:52;;;;;;;1.40;0.73;;;;;;;3.04;45.55;99025.06;7508810;23;20301;-55
2023/02/04 12:19:54;;;;;;;0.63;0.50;;;;;;;3.03;45.11;99037.41;7508658;23;20230;-56
2023/02/04 12:22:56;;;;;;;0.60;0.60;;;;;;;2.94;47.20;99056.78;7507544;23;20635;-52
2023/02/04 12:25:58;;;;;;;1.37;0.77;;;;;;;2.74;45.72;99032.53;7507233;23;20214;-55
2023/02/04 12:29:02;;;;;;;0.67;0.50;;;;;;;2.51;46.89;99019.13;7507860;23;20598;-58
2023/02/04 12:32:04;;;;;;;1.87;0.80;;;;;;;2.59;46.72;99026.22;7507619;23;20226;-59
2023/02/04 12:35:06;;;;;;;0.50;0.50;;;;;;;2.63;46.98;99032.00;7508054;23;20210;-56
2023/02/04 12:38:09;;;;;;;0.50;0.50;;;;;;;2.89;48.21;99021.41;7506905;23;20290;-57
2023/02/04 12:41:11;;;;;;;1.40;0.60;;;;;;;3.21;46.98;99018.88;7506629;23;20216;-58
2023/02/04 12:44:14;;;;;;;1.53;0.60;;;;;;;3.30;45.78;99020.53;7508086;23;20237;-57
2023/02/04 12:47:16;;;;;;;0.90;0.70;;;;;;;2.98;45.63;99002.84;7507886;23;20222;-54
2023/02/04 12:50:21;;;;;;;0.67;0.57;;;;;;;3.19;45.98;99031.34;7509591;23;20671;-58
2023/02/04 12:53:23;;;;;;;2.13;0.80;;;;;;;2.94;45.59;99045.44;7507430;23;20215;-57
2023/02/04 12:56:25;;;;;;;0.80;0.70;;;;;;;2.66;47.58;98998.31;7508582;23;20288;-58
2023/02/04 12:59:29;;;;;;;1.07;0.80;;;;;;;2.65;46.41;99038.75;7507161;23;20635;-56
2023/02/04 13:02:31;;;;;;;1.60;0.80;;;;;;;2.52;46.31;99043.63;7507108;23;20679;-57
2023/02/04 13:05:34;;;;;;;1.07;0.60;;;;;;;2.60;45.44;99043.66;7509221;23;20221;-51
2023/02/04 13:08:36;;;;;;;1.00;0.60;;;;;;;2.82;45.51;99053.63;7507245;23;20221;-57
2023/02/04 13:11:38;;;;;;;0.90;0.70;;;;;;;2.83;46.03;99047.38;7504234;23;20292;-55
2023/02/04 13:14:42;;;;;;;0.60;0.60;;;;;;;2.65;45.75;99066.84;7508026;23;20613;-57
2023/02/04 13:17:44;;;;;;;0.77;0.60;;;;;;;2.52;46.35;99062.03;7506975;23;20593;-58
2023/02/04 13:20:46;;;;;;;0.80;0.60;;;;;;;2.38;48.10;99058.19;7508603;23;20481;-56
2023/02/04 13:23:48;;;;;;;0.70;0.60;;;;;;;2.37;48.46;99074.94;7507401;23;20220;-56
2023/02/04 13:26:50;;;;;;;0.60;0.60;;;;;;;2.35;47.63;99065.53;7506688;23;20288;-56
2023/02/04 13:29:52;;;;;;;0.70;0.60;;;;;;;2.21;46.88;99075.63;7506748;23;20223;-56
2023/02/04 13:32:54;;;;;;;0.63;0.60;;;;;;;2.29;46.83;99067.81;7507411;23;20246;-56
2023/02/04 13:35:56;;;;;;;0.90;0.70;;;;;;;2.29;47.50;99074.88;7507155;23;20682;-57
2023/02/04 13:38:59;;;;;;;0.50;0.50;;;;;;;2.14;46.67;99082.50;7507958;23;20226;-53
2023/02/04 13:42:01;;;;;;;1.00;0.73;;;;;;;2.00;45.22;99086.50;7505189;23;20205;-53
2023/02/04 13:45:11;;;;;;;1.90;0.97;;;;;;;1.94;47.62;99091.53;7506163;23;20181;-55
2023/02/04 13:48:13;;;;;;;1.23;0.80;;;;;;;1.90;48.04;99092.81;7507247;23;20213;-55
2023/02/04 13:51:16;;;;;;;0.50;0.43;;;;;;;1.78;47.40;99092.25;7505896;23;20713;-56
2023/02/04 13:54:18;;;;;;;0.90;0.67;;;;;;;1.83;48.74;99092.63;7506381;23;20612;-56
2023/02/04 13:57:21;;;;;;;1.17;0.70;;;;;;;1.90;47.86;99098.91;7506666;23;20273;-57
2023/02/04 14:00:23;;;;;;;1.50;0.90;;;;;;;1.97;47.71;99101.75;7506948;23;20265;-57
2023/02/04 14:03:27;;;;;;;0.90;0.53;;;;;;;2.03;47.39;99091.47;7505080;23;20784;-54
2023/02/04 14:06:32;;;;;;;1.50;0.90;;;;;;;2.10;47.57;99114.50;7506552;23;20223;-55
2023/02/04 14:09:34;;;;;;;1.97;0.70;;;;;;;1.97;45.91;99104.38;7506305;23;20419;-58
2023/02/04 14:12:36;;;;;;;0.57;0.53;;;;;;;1.81;44.77;99119.00;7508639;23;20214;-55
2023/02/04 14:15:40;;;;;;;3.80;0.97;;;;;;;1.85;45.90;99122.19;7506666;23;20209;-55
2023/02/04 14:18:42;;;;;;;2.53;0.70;;;;;;;1.83;45.59;99126.78;7506472;23;20602;-57
2023/02/04 14:21:45;;;;;;;1.50;0.70;;;;;;;1.93;45.89;99127.50;7503076;23;20646;-58
2023/02/04 14:24:47;;;;;;;0.87;0.60;;;;;;;1.89;45.49;99128.78;7506351;23;20240;-58
2023/02/04 14:27:50;;;;;;;1.10;0.70;;;;;;;1.80;46.74;99141.03;7506402;23;20295;-55
2023/02/04 14:30:53;;;;;;;1.27;0.87;;;;;;;1.76;47.47;99142.28;7507466;23;20217;-56
2023/02/04 14:33:55;;;;;;;1.23;0.70;;;;;;;1.74;47.73;99135.53;7506576;23;20275;-56
2023/02/04 14:36:57;;;;;;;1.10;0.70;;;;;;;1.75;47.84;99143.25;7505804;23;20277;-53
2023/02/04 14:39:59;;;;;;;1.23;0.67;;;;;;;1.71;48.38;99141.91;7506323;23;20745;-58